Terminal Aerodrome Forecast
Issued by NWS Paducah, KY

Home | Current Version | Previous Version | Graphics & Text | Print | Product List | Glossary On
Versions: 1 2 3 4 5 6 7 8 9 10 11 12 13 14 15 16 17 18
119
FTUS43 KPAH 231120
TAFEVV
TAF
KEVV 231120Z 2312/2412 33015G25KT P6SM OVC008
     FM231530 33012G20KT P6SM OVC015
     FM240000 31006KT P6SM SCT030=

USA.gov is the U.S. government's official web portal to all federal, state and local government web resources and services.